sensor_id;sensor_type;location;lat;lon;timestamp;P1;durP1;ratioP1;P2;durP2;ratioP2
52043;SDS011;38053;53.100;6.078;2022-11-20T00:02:08;23.55;;;13.50;;
52043;SDS011;38053;53.100;6.078;2022-11-20T00:04:34;26.45;;;13.93;;
52043;SDS011;38053;53.100;6.078;2022-11-20T00:07:00;29.10;;;16.70;;
52043;SDS011;38053;53.100;6.078;2022-11-20T00:09:28;25.23;;;16.15;;
52043;SDS011;38053;53.100;6.078;2022-11-20T00:11:57;25.58;;;15.68;;
52043;SDS011;38053;53.100;6.078;2022-11-20T00:14:23;27.40;;;16.02;;
52043;SDS011;38053;53.100;6.078;2022-11-20T00:16:49;29.65;;;17.10;;
52043;SDS011;38053;53.100;6.078;2022-11-20T00:19:17;30.35;;;17.75;;
52043;SDS011;38053;53.100;6.078;2022-11-20T00:21:43;27.70;;;14.98;;
52043;SDS011;38053;53.100;6.078;2022-11-20T00:24:16;26.98;;;15.35;;
52043;SDS011;38053;53.100;6.078;2022-11-20T00:26:42;24.60;;;13.90;;
52043;SDS011;38053;53.100;6.078;2022-11-20T00:29:08;25.90;;;14.38;;
52043;SDS011;38053;53.100;6.078;2022-11-20T00:31:38;23.10;;;14.98;;
52043;SDS011;38053;53.100;6.078;2022-11-20T00:34:04;29.35;;;15.48;;
52043;SDS011;38053;53.100;6.078;2022-11-20T00:36:31;28.38;;;16.40;;
52043;SDS011;38053;53.100;6.078;2022-11-20T00:39:00;29.55;;;16.65;;
52043;SDS011;38053;53.100;6.078;2022-11-20T00:41:27;29.08;;;18.02;;
52043;SDS011;38053;53.100;6.078;2022-11-20T00:43:56;26.52;;;16.05;;
52043;SDS011;38053;53.100;6.078;2022-11-20T00:46:23;23.05;;;14.13;;
52043;SDS011;38053;53.100;6.078;2022-11-20T00:48:51;27.83;;;16.27;;
52043;SDS011;38053;53.100;6.078;2022-11-20T00:51:18;25.45;;;14.35;;
52043;SDS011;38053;53.100;6.078;2022-11-20T00:53:45;23.45;;;15.32;;
52043;SDS011;38053;53.100;6.078;2022-11-20T00:56:15;24.60;;;13.75;;
52043;SDS011;38053;53.100;6.078;2022-11-20T00:58:45;25.98;;;14.15;;
52043;SDS011;38053;53.100;6.078;2022-11-20T01:03:41;27.90;;;15.25;;
52043;SDS011;38053;53.100;6.078;2022-11-20T01:06:12;24.88;;;14.18;;
52043;SDS011;38053;53.100;6.078;2022-11-20T01:08:41;22.38;;;14.18;;
52043;SDS011;38053;53.100;6.078;2022-11-20T01:11:08;26.73;;;14.88;;
52043;SDS011;38053;53.100;6.078;2022-11-20T01:13:36;26.05;;;16.65;;
52043;SDS011;38053;53.100;6.078;2022-11-20T01:16:13;25.20;;;15.68;;
52043;SDS011;38053;53.100;6.078;2022-11-20T01:18:41;25.98;;;14.55;;
52043;SDS011;38053;53.100;6.078;2022-11-20T01:21:14;27.05;;;16.58;;
52043;SDS011;38053;53.100;6.078;2022-11-20T01:23:44;27.95;;;16.02;;
52043;SDS011;38053;53.100;6.078;2022-11-20T01:26:11;25.55;;;15.07;;
52043;SDS011;38053;53.100;6.078;2022-11-20T01:28:39;28.17;;;16.98;;
52043;SDS011;38053;53.100;6.078;2022-11-20T01:31:16;25.93;;;15.43;;
52043;SDS011;38053;53.100;6.078;2022-11-20T01:33:44;34.53;;;18.30;;
52043;SDS011;38053;53.100;6.078;2022-11-20T01:36:12;23.80;;;15.02;;
52043;SDS011;38053;53.100;6.078;2022-11-20T01:38:46;28.90;;;14.57;;
52043;SDS011;38053;53.100;6.078;2022-11-20T01:41:13;25.60;;;15.50;;
52043;SDS011;38053;53.100;6.078;2022-11-20T01:43:59;27.10;;;15.13;;
52043;SDS011;38053;53.100;6.078;2022-11-20T01:46:25;25.83;;;16.13;;
52043;SDS011;38053;53.100;6.078;2022-11-20T01:48:53;28.38;;;16.42;;
52043;SDS011;38053;53.100;6.078;2022-11-20T01:51:32;22.85;;;14.52;;
52043;SDS011;38053;53.100;6.078;2022-11-20T01:54:05;28.65;;;14.38;;
52043;SDS011;38053;53.100;6.078;2022-11-20T01:56:40;27.25;;;15.20;;
52043;SDS011;38053;53.100;6.078;2022-11-20T01:59:12;24.35;;;14.75;;
52043;SDS011;38053;53.100;6.078;2022-11-20T02:01:42;22.60;;;14.07;;
52043;SDS011;38053;53.100;6.078;2022-11-20T02:04:11;22.80;;;14.27;;
52043;SDS011;38053;53.100;6.078;2022-11-20T02:06:40;24.23;;;12.80;;
52043;SDS011;38053;53.100;6.078;2022-11-20T02:09:15;25.30;;;14.13;;
52043;SDS011;38053;53.100;6.078;2022-11-20T02:11:42;23.25;;;14.77;;
52043;SDS011;38053;53.100;6.078;2022-11-20T02:14:08;25.95;;;13.63;;
52043;SDS011;38053;53.100;6.078;2022-11-20T02:16:39;23.35;;;13.70;;
52043;SDS011;38053;53.100;6.078;2022-11-20T02:19:13;22.90;;;15.27;;
52043;SDS011;38053;53.100;6.078;2022-11-20T02:21:47;23.30;;;13.13;;
52043;SDS011;38053;53.100;6.078;2022-11-20T02:24:20;22.67;;;14.07;;
52043;SDS011;38053;53.100;6.078;2022-11-20T02:29:25;25.90;;;13.95;;
52043;SDS011;38053;53.100;6.078;2022-11-20T02:31:59;25.27;;;15.75;;
52043;SDS011;38053;53.100;6.078;2022-11-20T02:34:26;25.02;;;15.77;;
52043;SDS011;38053;53.100;6.078;2022-11-20T02:36:52;22.98;;;14.02;;
52043;SDS011;38053;53.100;6.078;2022-11-20T02:39:18;20.40;;;13.15;;
52043;SDS011;38053;53.100;6.078;2022-11-20T02:41:45;22.23;;;13.18;;
52043;SDS011;38053;53.100;6.078;2022-11-20T02:44:11;24.35;;;14.15;;
52043;SDS011;38053;53.100;6.078;2022-11-20T02:46:37;22.58;;;14.50;;
52043;SDS011;38053;53.100;6.078;2022-11-20T02:49:03;25.15;;;14.50;;
52043;SDS011;38053;53.100;6.078;2022-11-20T02:51:30;23.90;;;14.35;;
52043;SDS011;38053;53.100;6.078;2022-11-20T02:53:56;27.52;;;15.43;;
52043;SDS011;38053;53.100;6.078;2022-11-20T02:56:22;29.98;;;16.63;;
52043;SDS011;38053;53.100;6.078;2022-11-20T02:58:53;23.05;;;14.23;;
52043;SDS011;38053;53.100;6.078;2022-11-20T03:01:21;28.35;;;16.00;;
52043;SDS011;38053;53.100;6.078;2022-11-20T03:03:47;22.05;;;13.90;;
52043;SDS011;38053;53.100;6.078;2022-11-20T03:06:14;24.25;;;14.02;;
52043;SDS011;38053;53.100;6.078;2022-11-20T03:08:43;22.42;;;14.07;;
52043;SDS011;38053;53.100;6.078;2022-11-20T03:11:08;21.15;;;13.85;;
52043;SDS011;38053;53.100;6.078;2022-11-20T03:13:34;23.00;;;14.80;;
52043;SDS011;38053;53.100;6.078;2022-11-20T03:16:07;23.52;;;15.27;;
52043;SDS011;38053;53.100;6.078;2022-11-20T03:18:35;26.42;;;14.20;;
52043;SDS011;38053;53.100;6.078;2022-11-20T03:21:01;23.60;;;14.18;;
52043;SDS011;38053;53.100;6.078;2022-11-20T03:23:28;21.23;;;12.75;;
52043;SDS011;38053;53.100;6.078;2022-11-20T03:25:55;20.52;;;13.20;;
52043;SDS011;38053;53.100;6.078;2022-11-20T03:28:21;20.95;;;13.93;;
52043;SDS011;38053;53.100;6.078;2022-11-20T03:30:47;23.10;;;13.77;;
52043;SDS011;38053;53.100;6.078;2022-11-20T03:33:13;20.50;;;12.77;;
52043;SDS011;38053;53.100;6.078;2022-11-20T03:35:38;21.20;;;12.98;;
52043;SDS011;38053;53.100;6.078;2022-11-20T03:38:04;19.58;;;12.35;;
52043;SDS011;38053;53.100;6.078;2022-11-20T03:40:30;19.00;;;11.70;;
52043;SDS011;38053;53.100;6.078;2022-11-20T03:42:56;22.42;;;13.75;;
52043;SDS011;38053;53.100;6.078;2022-11-20T03:45:22;19.63;;;12.32;;
52043;SDS011;38053;53.100;6.078;2022-11-20T03:47:47;26.20;;;13.40;;
52043;SDS011;38053;53.100;6.078;2022-11-20T03:50:13;24.67;;;12.05;;
52043;SDS011;38053;53.100;6.078;2022-11-20T03:52:39;21.30;;;12.23;;
52043;SDS011;38053;53.100;6.078;2022-11-20T03:55:06;22.63;;;12.73;;
52043;SDS011;38053;53.100;6.078;2022-11-20T03:57:32;23.38;;;12.45;;
52043;SDS011;38053;53.100;6.078;2022-11-20T03:59:58;19.48;;;10.90;;
52043;SDS011;38053;53.100;6.078;2022-11-20T04:02:24;19.83;;;12.00;;
52043;SDS011;38053;53.100;6.078;2022-11-20T04:04:49;19.00;;;11.80;;
52043;SDS011;38053;53.100;6.078;2022-11-20T04:07:15;22.65;;;12.82;;
52043;SDS011;38053;53.100;6.078;2022-11-20T04:09:41;18.25;;;11.93;;
52043;SDS011;38053;53.100;6.078;2022-11-20T04:12:06;23.13;;;13.90;;
52043;SDS011;38053;53.100;6.078;2022-11-20T04:14:35;21.40;;;13.20;;
52043;SDS011;38053;53.100;6.078;2022-11-20T04:17:03;26.05;;;13.38;;
52043;SDS011;38053;53.100;6.078;2022-11-20T04:19:29;20.35;;;12.38;;
52043;SDS011;38053;53.100;6.078;2022-11-20T04:21:55;21.52;;;12.93;;
52043;SDS011;38053;53.100;6.078;2022-11-20T04:24:20;18.77;;;12.82;;
52043;SDS011;38053;53.100;6.078;2022-11-20T04:26:46;19.75;;;11.73;;
52043;SDS011;38053;53.100;6.078;2022-11-20T04:29:12;18.58;;;11.77;;
52043;SDS011;38053;53.100;6.078;2022-11-20T04:31:37;21.00;;;12.85;;
52043;SDS011;38053;53.100;6.078;2022-11-20T04:34:04;21.67;;;12.23;;
52043;SDS011;38053;53.100;6.078;2022-11-20T04:36:31;21.63;;;12.77;;
52043;SDS011;38053;53.100;6.078;2022-11-20T04:38:59;20.67;;;12.82;;
52043;SDS011;38053;53.100;6.078;2022-11-20T04:41:33;20.02;;;11.70;;
52043;SDS011;38053;53.100;6.078;2022-11-20T04:44:00;20.17;;;12.32;;
52043;SDS011;38053;53.100;6.078;2022-11-20T04:46:29;17.88;;;11.65;;
52043;SDS011;38053;53.100;6.078;2022-11-20T04:48:59;18.48;;;11.13;;
52043;SDS011;38053;53.100;6.078;2022-11-20T04:51:25;20.85;;;12.40;;
52043;SDS011;38053;53.100;6.078;2022-11-20T04:53:51;21.98;;;13.07;;
52043;SDS011;38053;53.100;6.078;2022-11-20T04:56:17;19.67;;;12.38;;
52043;SDS011;38053;53.100;6.078;2022-11-20T04:58:43;20.05;;;12.88;;
52043;SDS011;38053;53.100;6.078;2022-11-20T05:01:13;26.23;;;13.18;;
52043;SDS011;38053;53.100;6.078;2022-11-20T05:03:43;18.35;;;11.50;;
52043;SDS011;38053;53.100;6.078;2022-11-20T05:06:13;21.00;;;13.93;;
52043;SDS011;38053;53.100;6.078;2022-11-20T05:08:41;22.55;;;13.10;;
52043;SDS011;38053;53.100;6.078;2022-11-20T05:11:11;20.20;;;12.32;;
52043;SDS011;38053;53.100;6.078;2022-11-20T05:13:57;20.93;;;12.80;;
52043;SDS011;38053;53.100;6.078;2022-11-20T05:16:24;23.27;;;13.43;;
52043;SDS011;38053;53.100;6.078;2022-11-20T05:18:53;24.50;;;14.20;;
52043;SDS011;38053;53.100;6.078;2022-11-20T05:21:19;22.75;;;12.75;;
52043;SDS011;38053;53.100;6.078;2022-11-20T05:23:45;24.13;;;13.95;;
52043;SDS011;38053;53.100;6.078;2022-11-20T05:26:16;22.52;;;13.32;;
52043;SDS011;38053;53.100;6.078;2022-11-20T05:28:43;24.15;;;13.38;;
52043;SDS011;38053;53.100;6.078;2022-11-20T05:31:10;20.40;;;12.68;;
52043;SDS011;38053;53.100;6.078;2022-11-20T05:33:39;19.00;;;12.48;;
52043;SDS011;38053;53.100;6.078;2022-11-20T05:36:06;23.70;;;13.45;;
52043;SDS011;38053;53.100;6.078;2022-11-20T05:38:32;21.65;;;13.63;;
52043;SDS011;38053;53.100;6.078;2022-11-20T05:41:06;22.50;;;12.18;;
52043;SDS011;38053;53.100;6.078;2022-11-20T05:43:39;24.45;;;13.48;;
52043;SDS011;38053;53.100;6.078;2022-11-20T05:46:07;20.85;;;13.48;;
52043;SDS011;38053;53.100;6.078;2022-11-20T05:48:35;25.48;;;15.27;;
52043;SDS011;38053;53.100;6.078;2022-11-20T05:51:03;20.05;;;12.18;;
52043;SDS011;38053;53.100;6.078;2022-11-20T05:53:33;19.23;;;11.82;;
52043;SDS011;38053;53.100;6.078;2022-11-20T05:55:59;22.50;;;11.98;;
52043;SDS011;38053;53.100;6.078;2022-11-20T05:58:27;21.13;;;12.75;;
52043;SDS011;38053;53.100;6.078;2022-11-20T06:00:53;22.27;;;12.50;;
52043;SDS011;38053;53.100;6.078;2022-11-20T06:03:19;23.98;;;13.57;;
52043;SDS011;38053;53.100;6.078;2022-11-20T06:05:45;20.02;;;12.35;;
52043;SDS011;38053;53.100;6.078;2022-11-20T06:08:10;22.77;;;12.50;;
52043;SDS011;38053;53.100;6.078;2022-11-20T06:10:36;18.95;;;11.77;;
52043;SDS011;38053;53.100;6.078;2022-11-20T06:13:02;23.20;;;13.70;;
52043;SDS011;38053;53.100;6.078;2022-11-20T06:15:27;20.23;;;12.68;;
52043;SDS011;38053;53.100;6.078;2022-11-20T06:17:53;18.60;;;11.32;;
52043;SDS011;38053;53.100;6.078;2022-11-20T06:20:20;18.40;;;11.23;;
52043;SDS011;38053;53.100;6.078;2022-11-20T06:22:46;20.08;;;12.52;;
52043;SDS011;38053;53.100;6.078;2022-11-20T06:25:11;19.13;;;12.13;;
52043;SDS011;38053;53.100;6.078;2022-11-20T06:27:37;21.05;;;11.77;;
52043;SDS011;38053;53.100;6.078;2022-11-20T06:30:03;19.00;;;12.48;;
52043;SDS011;38053;53.100;6.078;2022-11-20T06:32:29;21.70;;;11.45;;
52043;SDS011;38053;53.100;6.078;2022-11-20T06:34:55;22.55;;;13.52;;
52043;SDS011;38053;53.100;6.078;2022-11-20T06:37:21;17.63;;;11.25;;
52043;SDS011;38053;53.100;6.078;2022-11-20T06:39:46;20.00;;;12.93;;
52043;SDS011;38053;53.100;6.078;2022-11-20T06:42:12;21.20;;;11.95;;
52043;SDS011;38053;53.100;6.078;2022-11-20T06:44:38;19.63;;;11.60;;
52043;SDS011;38053;53.100;6.078;2022-11-20T06:47:04;22.65;;;14.25;;
52043;SDS011;38053;53.100;6.078;2022-11-20T06:49:29;21.33;;;12.77;;
52043;SDS011;38053;53.100;6.078;2022-11-20T06:51:55;19.20;;;12.57;;
52043;SDS011;38053;53.100;6.078;2022-11-20T06:54:21;21.13;;;11.60;;
52043;SDS011;38053;53.100;6.078;2022-11-20T06:56:47;18.98;;;11.57;;
52043;SDS011;38053;53.100;6.078;2022-11-20T06:59:13;19.02;;;11.55;;
52043;SDS011;38053;53.100;6.078;2022-11-20T07:01:38;17.60;;;11.52;;
52043;SDS011;38053;53.100;6.078;2022-11-20T07:04:04;20.63;;;10.98;;
52043;SDS011;38053;53.100;6.078;2022-11-20T07:06:30;18.10;;;12.25;;
52043;SDS011;38053;53.100;6.078;2022-11-20T07:08:56;19.10;;;10.82;;
52043;SDS011;38053;53.100;6.078;2022-11-20T07:11:22;18.60;;;11.52;;
52043;SDS011;38053;53.100;6.078;2022-11-20T07:13:48;17.80;;;11.70;;
52043;SDS011;38053;53.100;6.078;2022-11-20T07:16:14;21.67;;;11.90;;
52043;SDS011;38053;53.100;6.078;2022-11-20T07:18:40;19.65;;;11.75;;
52043;SDS011;38053;53.100;6.078;2022-11-20T07:21:07;18.65;;;11.23;;
52043;SDS011;38053;53.100;6.078;2022-11-20T07:23:34;21.58;;;12.93;;
52043;SDS011;38053;53.100;6.078;2022-11-20T07:26:08;20.45;;;12.90;;
52043;SDS011;38053;53.100;6.078;2022-11-20T07:28:34;19.75;;;12.27;;
52043;SDS011;38053;53.100;6.078;2022-11-20T07:31:00;20.27;;;12.07;;
52043;SDS011;38053;53.100;6.078;2022-11-20T07:33:27;19.20;;;12.25;;
52043;SDS011;38053;53.100;6.078;2022-11-20T07:35:52;21.73;;;12.82;;
52043;SDS011;38053;53.100;6.078;2022-11-20T07:38:18;17.25;;;11.48;;
52043;SDS011;38053;53.100;6.078;2022-11-20T07:40:44;19.25;;;12.55;;
52043;SDS011;38053;53.100;6.078;2022-11-20T07:43:09;19.85;;;11.90;;
52043;SDS011;38053;53.100;6.078;2022-11-20T07:45:35;20.42;;;12.95;;
52043;SDS011;38053;53.100;6.078;2022-11-20T07:48:01;20.10;;;11.90;;
52043;SDS011;38053;53.100;6.078;2022-11-20T07:50:27;17.98;;;12.63;;
52043;SDS011;38053;53.100;6.078;2022-11-20T07:52:59;21.20;;;12.48;;
52043;SDS011;38053;53.100;6.078;2022-11-20T07:55:26;21.00;;;12.18;;
52043;SDS011;38053;53.100;6.078;2022-11-20T07:57:55;19.35;;;11.90;;
52043;SDS011;38053;53.100;6.078;2022-11-20T08:00:21;18.85;;;12.05;;
52043;SDS011;38053;53.100;6.078;2022-11-20T08:02:47;23.33;;;11.32;;
52043;SDS011;38053;53.100;6.078;2022-11-20T08:05:13;17.85;;;11.88;;
52043;SDS011;38053;53.100;6.078;2022-11-20T08:07:39;19.02;;;12.05;;
52043;SDS011;38053;53.100;6.078;2022-11-20T08:10:06;21.02;;;13.63;;
52043;SDS011;38053;53.100;6.078;2022-11-20T08:12:33;21.30;;;12.27;;
52043;SDS011;38053;53.100;6.078;2022-11-20T08:15:18;18.20;;;11.77;;
52043;SDS011;38053;53.100;6.078;2022-11-20T08:17:43;17.75;;;11.20;;
52043;SDS011;38053;53.100;6.078;2022-11-20T08:20:09;19.27;;;11.07;;
52043;SDS011;38053;53.100;6.078;2022-11-20T08:22:35;18.20;;;10.68;;
52043;SDS011;38053;53.100;6.078;2022-11-20T08:25:00;18.67;;;11.45;;
52043;SDS011;38053;53.100;6.078;2022-11-20T08:27:26;17.38;;;10.85;;
52043;SDS011;38053;53.100;6.078;2022-11-20T08:29:52;19.20;;;10.55;;
52043;SDS011;38053;53.100;6.078;2022-11-20T08:32:18;21.95;;;12.32;;
52043;SDS011;38053;53.100;6.078;2022-11-20T08:34:43;17.27;;;10.30;;
52043;SDS011;38053;53.100;6.078;2022-11-20T08:37:09;16.52;;;10.10;;
52043;SDS011;38053;53.100;6.078;2022-11-20T08:39:35;17.13;;;10.05;;
52043;SDS011;38053;53.100;6.078;2022-11-20T08:42:00;17.15;;;10.02;;
52043;SDS011;38053;53.100;6.078;2022-11-20T08:44:26;16.80;;;10.18;;
52043;SDS011;38053;53.100;6.078;2022-11-20T08:46:52;16.88;;;10.13;;
52043;SDS011;38053;53.100;6.078;2022-11-20T08:49:17;17.67;;;9.70;;
52043;SDS011;38053;53.100;6.078;2022-11-20T08:51:43;15.23;;;9.32;;
52043;SDS011;38053;53.100;6.078;2022-11-20T08:54:10;16.50;;;9.82;;
52043;SDS011;38053;53.100;6.078;2022-11-20T08:56:35;15.98;;;9.20;;
52043;SDS011;38053;53.100;6.078;2022-11-20T08:59:01;17.83;;;9.40;;
52043;SDS011;38053;53.100;6.078;2022-11-20T09:01:27;15.18;;;9.23;;
52043;SDS011;38053;53.100;6.078;2022-11-20T09:03:57;15.63;;;9.88;;
52043;SDS011;38053;53.100;6.078;2022-11-20T09:06:24;18.90;;;9.60;;
52043;SDS011;38053;53.100;6.078;2022-11-20T09:08:54;17.67;;;10.32;;
52043;SDS011;38053;53.100;6.078;2022-11-20T09:11:20;18.77;;;10.30;;
52043;SDS011;38053;53.100;6.078;2022-11-20T09:13:46;15.05;;;9.70;;
52043;SDS011;38053;53.100;6.078;2022-11-20T09:16:12;16.85;;;10.93;;
52043;SDS011;38053;53.100;6.078;2022-11-20T09:18:38;17.60;;;10.75;;
52043;SDS011;38053;53.100;6.078;2022-11-20T09:21:05;18.17;;;11.15;;
52043;SDS011;38053;53.100;6.078;2022-11-20T09:23:35;15.02;;;10.18;;
52043;SDS011;38053;53.100;6.078;2022-11-20T09:26:05;14.60;;;9.27;;
52043;SDS011;38053;53.100;6.078;2022-11-20T09:28:34;16.08;;;9.30;;
52043;SDS011;38053;53.100;6.078;2022-11-20T09:31:00;15.13;;;9.13;;
52043;SDS011;38053;53.100;6.078;2022-11-20T09:33:26;15.90;;;10.43;;
52043;SDS011;38053;53.100;6.078;2022-11-20T09:35:51;16.85;;;10.80;;
52043;SDS011;38053;53.100;6.078;2022-11-20T09:38:17;13.80;;;9.02;;
52043;SDS011;38053;53.100;6.078;2022-11-20T09:41:05;15.75;;;9.70;;
52043;SDS011;38053;53.100;6.078;2022-11-20T09:48:57;16.45;;;9.57;;
52043;SDS011;38053;53.100;6.078;2022-11-20T09:56:44;18.30;;;9.20;;
52043;SDS011;38053;53.100;6.078;2022-11-20T09:59:16;20.83;;;10.65;;
52043;SDS011;38053;53.100;6.078;2022-11-20T10:01:53;17.90;;;9.95;;
52043;SDS011;38053;53.100;6.078;2022-11-20T10:04:20;16.70;;;10.68;;
52043;SDS011;38053;53.100;6.078;2022-11-20T10:07:00;18.17;;;10.48;;
52043;SDS011;38053;53.100;6.078;2022-11-20T10:10:01;18.23;;;9.52;;
52043;SDS011;38053;53.100;6.078;2022-11-20T10:12:48;17.77;;;10.50;;
52043;SDS011;38053;53.100;6.078;2022-11-20T10:15:35;26.45;;;11.02;;
52043;SDS011;38053;53.100;6.078;2022-11-20T10:23:28;15.13;;;9.15;;
52043;SDS011;38053;53.100;6.078;2022-11-20T10:26:33;13.38;;;9.45;;
52043;SDS011;38053;53.100;6.078;2022-11-20T10:29:17;15.00;;;9.55;;
52043;SDS011;38053;53.100;6.078;2022-11-20T10:34:50;16.00;;;9.07;;
52043;SDS011;38053;53.100;6.078;2022-11-20T10:37:25;14.38;;;9.02;;
52043;SDS011;38053;53.100;6.078;2022-11-20T10:42:44;20.20;;;11.18;;
52043;SDS011;38053;53.100;6.078;2022-11-20T10:45:30;18.02;;;9.93;;
52043;SDS011;38053;53.100;6.078;2022-11-20T10:53:43;13.02;;;8.32;;
52043;SDS011;38053;53.100;6.078;2022-11-20T11:02:19;14.63;;;7.68;;
52043;SDS011;38053;53.100;6.078;2022-11-20T11:04:50;14.68;;;8.35;;
52043;SDS011;38053;53.100;6.078;2022-11-20T11:09:53;13.70;;;7.97;;
52043;SDS011;38053;53.100;6.078;2022-11-20T11:12:20;14.98;;;8.43;;
52043;SDS011;38053;53.100;6.078;2022-11-20T11:14:50;14.48;;;7.53;;
52043;SDS011;38053;53.100;6.078;2022-11-20T11:20:26;11.68;;;7.47;;
52043;SDS011;38053;53.100;6.078;2022-11-20T11:22:56;11.18;;;6.30;;
52043;SDS011;38053;53.100;6.078;2022-11-20T11:32:02;9.70;;;5.70;;
52043;SDS011;38053;53.100;6.078;2022-11-20T11:35:04;9.95;;;5.53;;
52043;SDS011;38053;53.100;6.078;2022-11-20T11:38:12;10.75;;;6.47;;
52043;SDS011;38053;53.100;6.078;2022-11-20T11:44:20;10.35;;;5.80;;
52043;SDS011;38053;53.100;6.078;2022-11-20T11:47:29;9.32;;;5.03;;
52043;SDS011;38053;53.100;6.078;2022-11-20T11:53:39;9.00;;;5.88;;
52043;SDS011;38053;53.100;6.078;2022-11-20T11:56:18;10.82;;;6.00;;
52043;SDS011;38053;53.100;6.078;2022-11-20T11:58:59;10.35;;;6.63;;
52043;SDS011;38053;53.100;6.078;2022-11-20T12:01:57;11.18;;;6.03;;
52043;SDS011;38053;53.100;6.078;2022-11-20T12:04:49;10.10;;;5.55;;
52043;SDS011;38053;53.100;6.078;2022-11-20T12:11:03;9.15;;;5.38;;
52043;SDS011;38053;53.100;6.078;2022-11-20T12:16:38;9.02;;;5.32;;
52043;SDS011;38053;53.100;6.078;2022-11-20T12:19:09;9.73;;;5.53;;
52043;SDS011;38053;53.100;6.078;2022-11-20T12:21:45;11.40;;;6.93;;
52043;SDS011;38053;53.100;6.078;2022-11-20T12:24:55;15.93;;;7.82;;
52043;SDS011;38053;53.100;6.078;2022-11-20T12:43:22;14.02;;;7.22;;
52043;SDS011;38053;53.100;6.078;2022-11-20T12:49:15;16.75;;;8.57;;
52043;SDS011;38053;53.100;6.078;2022-11-20T12:54:50;9.35;;;6.20;;
52043;SDS011;38053;53.100;6.078;2022-11-20T13:00:35;8.82;;;5.40;;
52043;SDS011;38053;53.100;6.078;2022-11-20T13:03:15;12.43;;;5.97;;
52043;SDS011;38053;53.100;6.078;2022-11-20T13:06:25;11.68;;;5.53;;
52043;SDS011;38053;53.100;6.078;2022-11-20T13:09:06;12.67;;;6.13;;
52043;SDS011;38053;53.100;6.078;2022-11-20T13:19:57;10.23;;;5.40;;
52043;SDS011;38053;53.100;6.078;2022-11-20T13:25:26;11.50;;;5.90;;
52043;SDS011;38053;53.100;6.078;2022-11-20T13:30:56;9.93;;;6.05;;
52043;SDS011;38053;53.100;6.078;2022-11-20T13:33:36;10.00;;;6.20;;
52043;SDS011;38053;53.100;6.078;2022-11-20T13:36:23;11.80;;;6.13;;
52043;SDS011;38053;53.100;6.078;2022-11-20T13:39:04;10.68;;;6.57;;
52043;SDS011;38053;53.100;6.078;2022-11-20T13:41:32;10.70;;;6.57;;
52043;SDS011;38053;53.100;6.078;2022-11-20T13:47:46;12.73;;;7.17;;
52043;SDS011;38053;53.100;6.078;2022-11-20T13:50:16;10.38;;;6.60;;
52043;SDS011;38053;53.100;6.078;2022-11-20T13:55:48;11.25;;;6.60;;
52043;SDS011;38053;53.100;6.078;2022-11-20T14:01:46;12.25;;;7.95;;
52043;SDS011;38053;53.100;6.078;2022-11-20T14:04:26;13.98;;;8.77;;
52043;SDS011;38053;53.100;6.078;2022-11-20T14:07:09;12.43;;;6.72;;
52043;SDS011;38053;53.100;6.078;2022-11-20T14:09:51;10.18;;;6.72;;
52043;SDS011;38053;53.100;6.078;2022-11-20T14:12:22;10.88;;;6.32;;
52043;SDS011;38053;53.100;6.078;2022-11-20T14:14:58;10.85;;;7.00;;
52043;SDS011;38053;53.100;6.078;2022-11-20T14:17:31;11.40;;;6.57;;
52043;SDS011;38053;53.100;6.078;2022-11-20T14:20:27;12.68;;;7.22;;
52043;SDS011;38053;53.100;6.078;2022-11-20T14:23:01;9.98;;;6.13;;
52043;SDS011;38053;53.100;6.078;2022-11-20T14:25:28;10.23;;;6.40;;
52043;SDS011;38053;53.100;6.078;2022-11-20T14:27:58;10.60;;;6.43;;
52043;SDS011;38053;53.100;6.078;2022-11-20T14:30:35;11.43;;;6.70;;
52043;SDS011;38053;53.100;6.078;2022-11-20T14:33:12;12.30;;;7.35;;
52043;SDS011;38053;53.100;6.078;2022-11-20T14:35:51;12.55;;;7.10;;
52043;SDS011;38053;53.100;6.078;2022-11-20T14:38:29;11.73;;;6.88;;
52043;SDS011;38053;53.100;6.078;2022-11-20T14:41:07;12.48;;;7.28;;
52043;SDS011;38053;53.100;6.078;2022-11-20T14:43:44;17.70;;;8.77;;
52043;SDS011;38053;53.100;6.078;2022-11-20T14:46:11;13.15;;;7.75;;
52043;SDS011;38053;53.100;6.078;2022-11-20T14:48:45;11.73;;;6.88;;
52043;SDS011;38053;53.100;6.078;2022-11-20T14:51:34;13.80;;;8.07;;
52043;SDS011;38053;53.100;6.078;2022-11-20T14:54:16;12.82;;;7.60;;
52043;SDS011;38053;53.100;6.078;2022-11-20T14:56:56;13.13;;;7.22;;
52043;SDS011;38053;53.100;6.078;2022-11-20T14:59:31;14.27;;;8.77;;
52043;SDS011;38053;53.100;6.078;2022-11-20T15:01:59;15.52;;;9.95;;
52043;SDS011;38053;53.100;6.078;2022-11-20T15:04:28;12.43;;;7.90;;
52043;SDS011;38053;53.100;6.078;2022-11-20T15:06:55;13.10;;;8.20;;
52043;SDS011;38053;53.100;6.078;2022-11-20T15:09:22;13.63;;;7.40;;
52043;SDS011;38053;53.100;6.078;2022-11-20T15:11:53;12.52;;;7.82;;
52043;SDS011;38053;53.100;6.078;2022-11-20T15:14:21;13.73;;;8.77;;
52043;SDS011;38053;53.100;6.078;2022-11-20T15:16:48;12.90;;;7.72;;
52043;SDS011;38053;53.100;6.078;2022-11-20T15:19:21;10.07;;;6.45;;
52043;SDS011;38053;53.100;6.078;2022-11-20T15:21:49;12.07;;;7.30;;
52043;SDS011;38053;53.100;6.078;2022-11-20T15:24:16;12.73;;;8.13;;
52043;SDS011;38053;53.100;6.078;2022-11-20T15:26:41;14.52;;;8.32;;
52043;SDS011;38053;53.100;6.078;2022-11-20T15:29:09;12.10;;;6.72;;
52043;SDS011;38053;53.100;6.078;2022-11-20T15:31:40;12.00;;;7.60;;
52043;SDS011;38053;53.100;6.078;2022-11-20T15:34:11;14.27;;;8.82;;
52043;SDS011;38053;53.100;6.078;2022-11-20T15:36:39;15.75;;;8.32;;
52043;SDS011;38053;53.100;6.078;2022-11-20T15:39:05;14.77;;;8.73;;
52043;SDS011;38053;53.100;6.078;2022-11-20T15:41:35;13.38;;;8.50;;
52043;SDS011;38053;53.100;6.078;2022-11-20T15:44:01;15.10;;;9.20;;
52043;SDS011;38053;53.100;6.078;2022-11-20T15:46:29;15.32;;;9.25;;
52043;SDS011;38053;53.100;6.078;2022-11-20T15:48:59;17.33;;;9.43;;
52043;SDS011;38053;53.100;6.078;2022-11-20T15:51:30;13.98;;;9.07;;
52043;SDS011;38053;53.100;6.078;2022-11-20T15:54:00;19.05;;;10.73;;
52043;SDS011;38053;53.100;6.078;2022-11-20T15:56:34;16.05;;;9.68;;
52043;SDS011;38053;53.100;6.078;2022-11-20T15:59:00;14.85;;;8.63;;
52043;SDS011;38053;53.100;6.078;2022-11-20T16:01:25;17.35;;;11.43;;
52043;SDS011;38053;53.100;6.078;2022-11-20T16:03:51;13.45;;;9.13;;
52043;SDS011;38053;53.100;6.078;2022-11-20T16:06:17;16.52;;;10.13;;
52043;SDS011;38053;53.100;6.078;2022-11-20T16:08:42;17.10;;;9.68;;
52043;SDS011;38053;53.100;6.078;2022-11-20T16:11:10;19.63;;;9.95;;
52043;SDS011;38053;53.100;6.078;2022-11-20T16:13:38;14.27;;;9.90;;
52043;SDS011;38053;53.100;6.078;2022-11-20T16:16:23;14.27;;;9.05;;
52043;SDS011;38053;53.100;6.078;2022-11-20T16:18:53;18.10;;;10.23;;
52043;SDS011;38053;53.100;6.078;2022-11-20T16:21:19;15.45;;;9.43;;
52043;SDS011;38053;53.100;6.078;2022-11-20T16:23:45;14.10;;;8.65;;
52043;SDS011;38053;53.100;6.078;2022-11-20T16:26:15;15.38;;;9.10;;
52043;SDS011;38053;53.100;6.078;2022-11-20T16:28:42;15.63;;;9.73;;
52043;SDS011;38053;53.100;6.078;2022-11-20T16:31:09;16.95;;;9.60;;
52043;SDS011;38053;53.100;6.078;2022-11-20T16:33:39;19.25;;;10.48;;
52043;SDS011;38053;53.100;6.078;2022-11-20T16:36:12;15.88;;;10.27;;
52043;SDS011;38053;53.100;6.078;2022-11-20T16:38:40;14.60;;;9.88;;